TimeEDT,TemperatureF,Dew PointF,Humidity,Sea Level PressureIn,VisibilityMPH,Wind Direction,Wind SpeedMPH,Gust SpeedMPH,PrecipitationIn,Events,Conditions,WindDirDegrees,DateUTC
12:08 AM,69.8,66.2,88,29.78,3.0,SW,6.9,21.9,0.31,Rain-Thunderstorm,Thunderstorms and Rain,220,2012-10-20 04:08:00
12:17 AM,71.6,68.0,88,29.78,10.0,South,10.4,-,0.31,Rain-Thunderstorm,Light Thunderstorms and Rain,180,2012-10-20 04:17:00
12:22 AM,71.6,68.0,88,29.78,10.0,South,9.2,-,0.31,,Overcast,190,2012-10-20 04:22:00
12:31 AM,71.6,66.2,83,29.78,10.0,South,9.2,-,0.31,,Overcast,180,2012-10-20 04:31:00
12:38 AM,69.8,66.2,88,29.77,10.0,South,6.9,-,0.31,,Overcast,180,2012-10-20 04:38:00
12:53 AM,70.0,66.0,87,29.78,10.0,South,6.9,-,0.31,,Overcast,180,2012-10-20 04:53:00
1:22 AM,69.8,66.2,88,29.77,10.0,South,11.5,-,N/A,,Scattered Clouds,180,2012-10-20 05:22:00
1:45 AM,68.0,64.4,88,29.75,10.0,South,5.8,-,N/A,,Scattered Clouds,170,2012-10-20 05:45:00
1:50 AM,68.0,64.4,88,29.75,9.0,South,6.9,-,N/A,,Mostly Cloudy,170,2012-10-20 05:50:00
1:53 AM,68.0,64.9,90,29.75,9.0,South,5.8,-,N/A,,Mostly Cloudy,170,2012-10-20 05:53:00
2:01 AM,68.0,64.4,88,29.76,8.0,SSE,9.2,-,N/A,,Overcast,160,2012-10-20 06:01:00
2:17 AM,68.0,64.4,88,29.75,10.0,South,9.2,-,N/A,,Mostly Cloudy,170,2012-10-20 06:17:00
2:27 AM,69.8,64.4,83,29.75,10.0,South,12.7,-,N/A,,Scattered Clouds,170,2012-10-20 06:27:00
2:53 AM,68.0,64.0,87,29.73,10.0,South,10.4,-,N/A,,Mostly Cloudy,180,2012-10-20 06:53:00
3:53 AM,69.1,64.9,87,29.72,10.0,South,11.5,-,N/A,,Scattered Clouds,180,2012-10-20 07:53:00
4:27 AM,68.0,64.4,88,29.73,10.0,South,11.5,-,N/A,,Mostly Cloudy,170,2012-10-20 08:27:00
4:38 AM,68.0,64.4,88,29.73,10.0,South,10.4,-,N/A,,Mostly Cloudy,170,2012-10-20 08:38:00
4:53 AM,68.0,64.9,90,29.73,10.0,South,9.2,-,0.00,Rain,Light Rain,170,2012-10-20 08:53:00
5:21 AM,69.8,66.2,88,29.68,10.0,SE,12.7,-,0.04,Rain,Light Rain,140,2012-10-20 09:21:00
5:32 AM,69.8,66.2,88,29.69,10.0,SSE,9.2,-,0.05,Rain,Light Rain,160,2012-10-20 09:32:00
5:53 AM,70.0,66.0,87,29.69,10.0,South,9.2,-,0.06,Rain,Light Rain,180,2012-10-20 09:53:00
6:07 AM,69.8,66.2,88,29.70,10.0,SSW,11.5,20.7,0.03,Rain,Rain,210,2012-10-20 10:07:00
6:33 AM,69.8,66.2,88,29.69,10.0,SW,12.7,20.7,0.05,Rain,Light Rain,220,2012-10-20 10:33:00
6:53 AM,70.0,66.9,90,29.69,10.0,WSW,8.1,-,0.05,,Mostly Cloudy,240,2012-10-20 10:53:00
7:20 AM,69.8,66.2,88,29.69,10.0,SW,8.1,-,N/A,,Overcast,230,2012-10-20 11:20:00
7:53 AM,68.0,66.0,93,29.70,10.0,SSW,8.1,-,N/A,,Scattered Clouds,210,2012-10-20 11:53:00
8:20 AM,68.0,64.4,88,29.72,10.0,South,10.4,-,N/A,,Mostly Cloudy,170,2012-10-20 12:20:00
8:53 AM,68.0,64.0,87,29.72,3.0,SSE,10.4,-,0.00,Rain,Light Rain,160,2012-10-20 12:53:00
9:23 AM,68.0,64.4,88,29.71,10.0,South,10.4,-,0.00,,Overcast,180,2012-10-20 13:23:00
9:33 AM,68.0,64.4,88,29.71,10.0,South,9.2,-,0.00,,Overcast,180,2012-10-20 13:33:00
9:51 AM,68.0,64.4,88,29.70,10.0,SSW,12.7,-,0.00,,Mostly Cloudy,200,2012-10-20 13:51:00
9:53 AM,68.0,64.0,87,29.70,10.0,South,12.7,-,0.00,,Mostly Cloudy,190,2012-10-20 13:53:00
9:58 AM,68.0,64.4,88,29.70,10.0,South,11.5,-,N/A,,Overcast,190,2012-10-20 13:58:00
10:53 AM,69.1,64.0,84,29.70,10.0,South,13.8,-,N/A,,Overcast,180,2012-10-20 14:53:00
11:53 AM,68.0,64.0,87,29.69,0.8,SW,11.5,19.6,N/A,,Overcast,220,2012-10-20 15:53:00
11:59 AM,68.0,64.4,88,29.69,2.5,SW,11.5,-,N/A,,Overcast,220,2012-10-20 15:59:00
12:07 PM,68.0,64.4,88,29.68,1.0,SSW,12.7,-,N/A,,Overcast,210,2012-10-20 16:07:00
12:24 PM,69.8,64.4,83,29.67,3.0,SW,12.7,-,N/A,,Overcast,220,2012-10-20 16:24:00
12:53 PM,66.9,64.0,90,29.68,1.0,SW,11.5,21.9,N/A,,Overcast,230,2012-10-20 16:53:00
1:05 PM,66.2,62.6,88,29.67,4.0,WSW,10.4,16.1,N/A,,Overcast,240,2012-10-20 17:05:00
1:21 PM,66.2,62.6,88,29.68,10.0,WSW,6.9,-,N/A,,Overcast,240,2012-10-20 17:21:00
3:53 PM,66.0,59.0,78,29.68,10.0,SW,13.8,20.7,N/A,,Overcast,220,2012-10-20 19:53:00
4:01 PM,66.2,59.0,78,29.69,10.0,SW,10.4,20.7,N/A,,Scattered Clouds,220,2012-10-20 20:01:00
4:53 PM,64.0,59.0,84,29.69,10.0,SW,9.2,-,N/A,,Scattered Clouds,220,2012-10-20 20:53:00
5:53 PM,64.0,59.0,84,29.69,10.0,SW,12.7,-,N/A,,Partly Cloudy,220,2012-10-20 21:53:00
6:53 PM,63.0,57.0,81,29.71,10.0,SW,12.7,-,N/A,,Clear,220,2012-10-20 22:53:00
7:53 PM,63.0,57.0,81,29.73,10.0,SW,10.4,-,N/A,,Clear,220,2012-10-20 23:53:00
8:53 PM,63.0,57.9,84,29.74,10.0,SW,8.1,-,N/A,,Clear,230,2012-10-21 00:53:00
9:53 PM,63.0,57.9,84,29.75,10.0,WSW,9.2,-,N/A,,Clear,240,2012-10-21 01:53:00
10:53 PM,63.0,53.1,70,29.76,10.0,WSW,12.7,21.9,N/A,,Clear,250,2012-10-21 02:53:00
11:53 PM,62.1,50.0,65,29.77,10.0,WSW,8.1,-,N/A,,Clear,250,2012-10-21 03:53:00